Port Hardy Airport
CYZT : now visible

Airfield :











YOU CAN JOIN US ON...

 
LOGIN :

Register | Disclaimer

   EN    FR    IT 

 









Legend :    VFR   Marginal VFR   IFR   Intensive IFR   Very Intensive IFR
Visi :
Ceiling :
>= 8 km
>= 3000ft
5 to 8 km
1000 to 3000 ft
1500m to 5 km
500 to 1000 ft
800 to 1500m
200 to 500 ft
< 800m
< 200 ft
Symbols :   Thunderstorms  Fog  Heavy snow  Heavy precipitations  Wind > 20 kt






- Airport Elevation : 71 ft
- IATA code : YZT


CYZT - Port Hardy

CURRENT METAR :
  • 220400Z 21004KT 120V220 15SM -SHRA FEW015 BKN042 BKN130 04/04 A2958 RMK SC1SC4AC2 OCNL -SHRA CVCTCV CLED EMBD SLP020

EXPIRED METARs :
  • 220327Z 13008KT 12SM -SHRA FEW015 BKN032 05/04 A2956 RMK SC2SC5 CVCTV CLD EMBD SLP013
  • 220313Z 13008KT 10SM SHRA FEW015 BKN032 05/04 A2956 RMK SC2SC5 CVCTV CLD EMBD PRESRR SLP012
  • 220300Z 13009KT 120V200 12SM -SHRA FEW015 OVC032 05/04 A2955 RMK SC2SC6 CVCTV CLD EMBD SLP007
  • 220200Z 12013KT 12SM -SHRA BKN036 05/04 A2951 RMK SC7 CVCTV CLD EMBD SLP996
  • 220128Z 14005KT 10SM -SHRA FEW015 BKN035 05/04 A2951 RMK CF2SC5 CVCTV CLD EMBD SLP993
  • 220100Z 13010KT 15SM FEW015 BKN042 05/04 A2948 RMK CF2SC5 SLP986

TAF TAF CYZT
Valid from the 22 at 01:00 until the 22 at 13:00 UTC


220038Z 2201/2213 13007KT P6SM FEW015 BKN040
TEMPO 2201/2213 5SM -SHRA BR BKN015 RMK NXT FCST BY 220700Z



MET'MAP, your aeronautical weather chart ! - Copyright ORBIFLY December 2007 - Disclaimer

ORBIFLY MET'MAP TEAM :

Programming & Development : Alexandra Zaïnal
Concept & original design : Baudouin d'Aumeries
Assistance for programming : Marc-Olivier Méhu
Technical & hardware support : Manuel Goepfert

Contact : metmap@orbifly.com




SOURCES & CREDITS :

   NOAA       Earth
Advisory